sensor_id;sensor_type;location;lat;lon;timestamp;P1;durP1;ratioP1;P2;durP2;ratioP2
75220;SDS011;63802;53.232;6.570;2023-03-17T00:02:11;6.43;;;2.53;;
75220;SDS011;63802;53.232;6.570;2023-03-17T00:04:38;8.15;;;3.20;;
75220;SDS011;63802;53.232;6.570;2023-03-17T00:07:14;5.45;;;2.65;;
75220;SDS011;63802;53.232;6.570;2023-03-17T00:09:44;6.65;;;2.72;;
75220;SDS011;63802;53.232;6.570;2023-03-17T00:12:13;6.05;;;2.92;;
75220;SDS011;63802;53.232;6.570;2023-03-17T00:14:39;5.30;;;2.72;;
75220;SDS011;63802;53.232;6.570;2023-03-17T00:17:22;5.70;;;2.75;;
75220;SDS011;63802;53.232;6.570;2023-03-17T00:19:59;5.70;;;2.50;;
75220;SDS011;63802;53.232;6.570;2023-03-17T00:22:31;6.35;;;2.58;;
75220;SDS011;63802;53.232;6.570;2023-03-17T00:25:00;5.72;;;2.72;;
75220;SDS011;63802;53.232;6.570;2023-03-17T00:27:41;4.70;;;2.58;;
75220;SDS011;63802;53.232;6.570;2023-03-17T00:30:15;4.95;;;2.45;;
75220;SDS011;63802;53.232;6.570;2023-03-17T00:32:41;7.63;;;2.85;;
75220;SDS011;63802;53.232;6.570;2023-03-17T00:35:14;6.38;;;2.80;;
75220;SDS011;63802;53.232;6.570;2023-03-17T00:37:41;8.43;;;2.80;;
75220;SDS011;63802;53.232;6.570;2023-03-17T00:40:08;7.80;;;2.90;;
75220;SDS011;63802;53.232;6.570;2023-03-17T00:42:52;7.05;;;2.75;;
75220;SDS011;63802;53.232;6.570;2023-03-17T00:47:59;8.88;;;2.85;;
75220;SDS011;63802;53.232;6.570;2023-03-17T00:50:27;5.72;;;2.75;;
75220;SDS011;63802;53.232;6.570;2023-03-17T00:52:55;4.88;;;3.00;;
75220;SDS011;63802;53.232;6.570;2023-03-17T00:55:23;7.03;;;2.90;;
75220;SDS011;63802;53.232;6.570;2023-03-17T00:57:58;6.22;;;2.50;;
75220;SDS011;63802;53.232;6.570;2023-03-17T01:00:27;5.47;;;2.30;;
75220;SDS011;63802;53.232;6.570;2023-03-17T01:02:54;4.13;;;2.50;;
75220;SDS011;63802;53.232;6.570;2023-03-17T01:05:21;3.92;;;2.65;;
75220;SDS011;63802;53.232;6.570;2023-03-17T01:07:52;6.55;;;2.83;;
75220;SDS011;63802;53.232;6.570;2023-03-17T01:10:23;6.07;;;2.92;;
75220;SDS011;63802;53.232;6.570;2023-03-17T01:12:52;5.43;;;2.60;;
75220;SDS011;63802;53.232;6.570;2023-03-17T01:15:20;4.97;;;2.75;;
75220;SDS011;63802;53.232;6.570;2023-03-17T01:17:47;5.93;;;2.90;;
75220;SDS011;63802;53.232;6.570;2023-03-17T01:22:44;9.60;;;2.92;;
75220;SDS011;63802;53.232;6.570;2023-03-17T01:25:22;4.65;;;2.40;;
75220;SDS011;63802;53.232;6.570;2023-03-17T01:27:59;4.38;;;2.40;;
75220;SDS011;63802;53.232;6.570;2023-03-17T01:30:26;7.43;;;2.88;;
75220;SDS011;63802;53.232;6.570;2023-03-17T01:32:55;3.72;;;2.33;;
75220;SDS011;63802;53.232;6.570;2023-03-17T01:35:26;7.57;;;2.83;;
75220;SDS011;63802;53.232;6.570;2023-03-17T01:37:59;4.57;;;2.78;;
75220;SDS011;63802;53.232;6.570;2023-03-17T01:40:28;5.72;;;2.65;;
75220;SDS011;63802;53.232;6.570;2023-03-17T01:49:21;6.03;;;2.58;;
75220;SDS011;63802;53.232;6.570;2023-03-17T01:51:33;4.30;;;2.33;;
75220;SDS011;63802;53.232;6.570;2023-03-17T01:54:04;5.55;;;2.33;;
75220;SDS011;63802;53.232;6.570;2023-03-17T01:56:34;6.65;;;2.63;;
75220;SDS011;63802;53.232;6.570;2023-03-17T01:59:09;6.38;;;2.90;;
75220;SDS011;63802;53.232;6.570;2023-03-17T02:01:41;4.18;;;2.45;;
75220;SDS011;63802;53.232;6.570;2023-03-17T02:04:10;5.32;;;2.60;;
75220;SDS011;63802;53.232;6.570;2023-03-17T02:06:37;4.53;;;2.60;;
75220;SDS011;63802;53.232;6.570;2023-03-17T02:09:12;8.80;;;2.97;;
75220;SDS011;63802;53.232;6.570;2023-03-17T02:11:50;7.38;;;2.92;;
75220;SDS011;63802;53.232;6.570;2023-03-17T02:14:16;5.75;;;2.90;;
75220;SDS011;63802;53.232;6.570;2023-03-17T02:16:43;6.00;;;2.80;;
75220;SDS011;63802;53.232;6.570;2023-03-17T02:19:09;6.25;;;2.60;;
75220;SDS011;63802;53.232;6.570;2023-03-17T02:21:42;6.07;;;2.55;;
75220;SDS011;63802;53.232;6.570;2023-03-17T02:24:22;5.57;;;2.67;;
75220;SDS011;63802;53.232;6.570;2023-03-17T02:27:16;5.65;;;2.50;;
75220;SDS011;63802;53.232;6.570;2023-03-17T02:29:45;7.32;;;2.88;;
75220;SDS011;63802;53.232;6.570;2023-03-17T02:32:23;4.80;;;2.53;;
75220;SDS011;63802;53.232;6.570;2023-03-17T02:34:52;7.55;;;3.15;;
75220;SDS011;63802;53.232;6.570;2023-03-17T02:37:24;7.25;;;2.95;;
75220;SDS011;63802;53.232;6.570;2023-03-17T02:39:59;5.20;;;2.70;;
75220;SDS011;63802;53.232;6.570;2023-03-17T02:42:26;7.53;;;2.67;;
75220;SDS011;63802;53.232;6.570;2023-03-17T02:44:55;6.80;;;2.80;;
75220;SDS011;63802;53.232;6.570;2023-03-17T02:47:30;6.35;;;2.80;;
75220;SDS011;63802;53.232;6.570;2023-03-17T02:50:02;4.90;;;2.58;;
75220;SDS011;63802;53.232;6.570;2023-03-17T02:52:32;4.65;;;2.60;;
75220;SDS011;63802;53.232;6.570;2023-03-17T02:55:00;4.47;;;2.55;;
75220;SDS011;63802;53.232;6.570;2023-03-17T02:57:26;9.82;;;2.92;;
75220;SDS011;63802;53.232;6.570;2023-03-17T02:59:54;4.90;;;2.30;;
75220;SDS011;63802;53.232;6.570;2023-03-17T03:02:20;5.25;;;2.70;;
75220;SDS011;63802;53.232;6.570;2023-03-17T03:04:45;5.43;;;2.42;;
75220;SDS011;63802;53.232;6.570;2023-03-17T03:07:12;6.40;;;2.83;;
75220;SDS011;63802;53.232;6.570;2023-03-17T03:09:37;12.10;;;3.33;;
75220;SDS011;63802;53.232;6.570;2023-03-17T03:12:06;4.32;;;2.47;;
75220;SDS011;63802;53.232;6.570;2023-03-17T03:14:34;7.03;;;2.83;;
75220;SDS011;63802;53.232;6.570;2023-03-17T03:17:02;7.70;;;3.10;;
75220;SDS011;63802;53.232;6.570;2023-03-17T03:19:28;5.80;;;2.58;;
75220;SDS011;63802;53.232;6.570;2023-03-17T03:21:54;11.80;;;3.30;;
75220;SDS011;63802;53.232;6.570;2023-03-17T03:24:25;5.28;;;2.72;;
75220;SDS011;63802;53.232;6.570;2023-03-17T03:27:06;5.82;;;2.85;;
75220;SDS011;63802;53.232;6.570;2023-03-17T03:29:32;6.30;;;3.03;;
75220;SDS011;63802;53.232;6.570;2023-03-17T03:32:00;3.95;;;2.50;;
75220;SDS011;63802;53.232;6.570;2023-03-17T03:34:26;6.45;;;2.97;;
75220;SDS011;63802;53.232;6.570;2023-03-17T03:39:28;6.53;;;3.10;;
75220;SDS011;63802;53.232;6.570;2023-03-17T03:41:54;7.00;;;2.40;;
75220;SDS011;63802;53.232;6.570;2023-03-17T03:44:25;6.63;;;2.90;;
75220;SDS011;63802;53.232;6.570;2023-03-17T03:46:50;4.63;;;2.47;;
75220;SDS011;63802;53.232;6.570;2023-03-17T03:49:19;6.57;;;3.10;;
75220;SDS011;63802;53.232;6.570;2023-03-17T03:51:45;5.22;;;2.72;;
75220;SDS011;63802;53.232;6.570;2023-03-17T03:54:15;5.45;;;2.42;;
75220;SDS011;63802;53.232;6.570;2023-03-17T03:56:49;7.78;;;3.25;;
75220;SDS011;63802;53.232;6.570;2023-03-17T03:59:15;5.40;;;2.67;;
75220;SDS011;63802;53.232;6.570;2023-03-17T04:01:44;9.30;;;3.25;;
75220;SDS011;63802;53.232;6.570;2023-03-17T04:04:10;6.50;;;2.75;;
75220;SDS011;63802;53.232;6.570;2023-03-17T04:06:39;4.13;;;2.53;;
75220;SDS011;63802;53.232;6.570;2023-03-17T04:09:05;11.68;;;3.00;;
75220;SDS011;63802;53.232;6.570;2023-03-17T04:11:30;5.40;;;2.90;;
75220;SDS011;63802;53.232;6.570;2023-03-17T04:13:56;5.72;;;2.60;;
75220;SDS011;63802;53.232;6.570;2023-03-17T04:16:25;5.22;;;2.90;;
75220;SDS011;63802;53.232;6.570;2023-03-17T04:18:51;4.70;;;2.42;;
75220;SDS011;63802;53.232;6.570;2023-03-17T04:21:20;6.13;;;2.72;;
75220;SDS011;63802;53.232;6.570;2023-03-17T04:23:48;4.90;;;2.70;;
75220;SDS011;63802;53.232;6.570;2023-03-17T04:26:15;7.50;;;2.92;;
75220;SDS011;63802;53.232;6.570;2023-03-17T04:28:42;5.10;;;2.60;;
75220;SDS011;63802;53.232;6.570;2023-03-17T04:31:09;7.28;;;2.80;;
75220;SDS011;63802;53.232;6.570;2023-03-17T04:33:36;5.15;;;2.60;;
75220;SDS011;63802;53.232;6.570;2023-03-17T04:36:08;5.18;;;3.10;;
75220;SDS011;63802;53.232;6.570;2023-03-17T04:38:41;6.90;;;2.83;;
75220;SDS011;63802;53.232;6.570;2023-03-17T04:41:06;5.05;;;2.60;;
75220;SDS011;63802;53.232;6.570;2023-03-17T04:43:35;5.47;;;2.53;;
75220;SDS011;63802;53.232;6.570;2023-03-17T04:46:03;5.18;;;2.80;;
75220;SDS011;63802;53.232;6.570;2023-03-17T04:48:29;5.78;;;2.63;;
75220;SDS011;63802;53.232;6.570;2023-03-17T04:50:56;7.68;;;2.75;;
75220;SDS011;63802;53.232;6.570;2023-03-17T04:53:27;5.00;;;2.67;;
75220;SDS011;63802;53.232;6.570;2023-03-17T04:56:02;4.75;;;2.58;;
75220;SDS011;63802;53.232;6.570;2023-03-17T04:58:28;5.18;;;2.65;;
75220;SDS011;63802;53.232;6.570;2023-03-17T05:00:53;3.88;;;2.55;;
75220;SDS011;63802;53.232;6.570;2023-03-17T05:03:26;7.70;;;2.63;;
75220;SDS011;63802;53.232;6.570;2023-03-17T05:05:54;4.50;;;2.70;;
75220;SDS011;63802;53.232;6.570;2023-03-17T05:08:21;6.82;;;2.72;;
75220;SDS011;63802;53.232;6.570;2023-03-17T05:10:47;5.55;;;2.35;;
75220;SDS011;63802;53.232;6.570;2023-03-17T05:13:13;5.30;;;2.92;;
75220;SDS011;63802;53.232;6.570;2023-03-17T05:15:43;6.03;;;2.92;;
75220;SDS011;63802;53.232;6.570;2023-03-17T05:18:11;6.07;;;2.65;;
75220;SDS011;63802;53.232;6.570;2023-03-17T05:20:37;6.15;;;2.78;;
75220;SDS011;63802;53.232;6.570;2023-03-17T05:23:03;7.05;;;2.60;;
75220;SDS011;63802;53.232;6.570;2023-03-17T05:25:31;4.28;;;2.70;;
75220;SDS011;63802;53.232;6.570;2023-03-17T05:27:57;5.82;;;2.42;;
75220;SDS011;63802;53.232;6.570;2023-03-17T05:30:23;6.72;;;2.92;;
75220;SDS011;63802;53.232;6.570;2023-03-17T05:32:50;8.25;;;2.75;;
75220;SDS011;63802;53.232;6.570;2023-03-17T05:35:15;6.40;;;2.83;;
75220;SDS011;63802;53.232;6.570;2023-03-17T05:37:42;4.50;;;2.60;;
75220;SDS011;63802;53.232;6.570;2023-03-17T05:40:09;8.15;;;2.92;;
75220;SDS011;63802;53.232;6.570;2023-03-17T05:42:39;5.03;;;2.72;;
75220;SDS011;63802;53.232;6.570;2023-03-17T05:45:06;7.55;;;3.00;;
75220;SDS011;63802;53.232;6.570;2023-03-17T05:47:32;6.07;;;2.60;;
75220;SDS011;63802;53.232;6.570;2023-03-17T05:52:29;6.30;;;2.70;;
75220;SDS011;63802;53.232;6.570;2023-03-17T05:54:55;5.68;;;3.00;;
75220;SDS011;63802;53.232;6.570;2023-03-17T05:57:22;5.57;;;2.40;;
75220;SDS011;63802;53.232;6.570;2023-03-17T05:59:48;8.10;;;3.08;;
75220;SDS011;63802;53.232;6.570;2023-03-17T06:02:18;6.03;;;3.00;;
75220;SDS011;63802;53.232;6.570;2023-03-17T06:04:43;7.10;;;3.03;;
75220;SDS011;63802;53.232;6.570;2023-03-17T06:07:09;5.20;;;2.63;;
75220;SDS011;63802;53.232;6.570;2023-03-17T06:09:46;4.82;;;2.53;;
75220;SDS011;63802;53.232;6.570;2023-03-17T06:12:15;8.90;;;3.15;;
75220;SDS011;63802;53.232;6.570;2023-03-17T06:14:45;5.80;;;2.60;;
75220;SDS011;63802;53.232;6.570;2023-03-17T06:17:13;5.25;;;3.08;;
75220;SDS011;63802;53.232;6.570;2023-03-17T06:19:39;5.55;;;2.58;;
75220;SDS011;63802;53.232;6.570;2023-03-17T06:22:07;5.72;;;3.13;;
75220;SDS011;63802;53.232;6.570;2023-03-17T06:24:41;9.10;;;2.95;;
75220;SDS011;63802;53.232;6.570;2023-03-17T06:27:07;6.82;;;3.35;;
75220;SDS011;63802;53.232;6.570;2023-03-17T06:29:34;5.53;;;3.03;;
75220;SDS011;63802;53.232;6.570;2023-03-17T06:32:02;6.93;;;2.95;;
75220;SDS011;63802;53.232;6.570;2023-03-17T06:34:40;5.78;;;3.03;;
75220;SDS011;63802;53.232;6.570;2023-03-17T06:37:06;7.82;;;3.47;;
75220;SDS011;63802;53.232;6.570;2023-03-17T06:39:37;5.93;;;3.08;;
75220;SDS011;63802;53.232;6.570;2023-03-17T06:42:03;5.70;;;3.00;;
75220;SDS011;63802;53.232;6.570;2023-03-17T06:44:51;5.70;;;3.00;;
75220;SDS011;63802;53.232;6.570;2023-03-17T06:47:20;6.78;;;3.33;;
75220;SDS011;63802;53.232;6.570;2023-03-17T06:49:46;6.35;;;3.28;;
75220;SDS011;63802;53.232;6.570;2023-03-17T06:52:12;5.95;;;2.90;;
75220;SDS011;63802;53.232;6.570;2023-03-17T06:54:38;9.05;;;2.90;;
75220;SDS011;63802;53.232;6.570;2023-03-17T06:57:05;6.32;;;2.72;;
75220;SDS011;63802;53.232;6.570;2023-03-17T06:59:30;12.93;;;3.55;;
75220;SDS011;63802;53.232;6.570;2023-03-17T07:01:59;5.10;;;2.70;;
75220;SDS011;63802;53.232;6.570;2023-03-17T07:04:29;6.25;;;2.72;;
75220;SDS011;63802;53.232;6.570;2023-03-17T07:07:09;10.55;;;3.25;;
75220;SDS011;63802;53.232;6.570;2023-03-17T07:10:02;7.28;;;2.97;;
75220;SDS011;63802;53.232;6.570;2023-03-17T07:15:27;8.93;;;2.60;;
75220;SDS011;63802;53.232;6.570;2023-03-17T07:18:04;6.28;;;2.83;;
75220;SDS011;63802;53.232;6.570;2023-03-17T07:20:39;7.15;;;3.10;;
75220;SDS011;63802;53.232;6.570;2023-03-17T07:23:10;5.82;;;3.00;;
75220;SDS011;63802;53.232;6.570;2023-03-17T07:25:40;6.43;;;3.05;;
75220;SDS011;63802;53.232;6.570;2023-03-17T07:28:21;8.07;;;3.15;;
75220;SDS011;63802;53.232;6.570;2023-03-17T07:30:47;7.25;;;2.60;;
75220;SDS011;63802;53.232;6.570;2023-03-17T07:33:39;9.95;;;3.10;;
75220;SDS011;63802;53.232;6.570;2023-03-17T07:36:11;5.47;;;2.60;;
75220;SDS011;63802;53.232;6.570;2023-03-17T07:38:46;12.55;;;3.17;;
75220;SDS011;63802;53.232;6.570;2023-03-17T07:41:18;5.38;;;3.00;;
75220;SDS011;63802;53.232;6.570;2023-03-17T07:43:44;6.85;;;3.08;;
75220;SDS011;63802;53.232;6.570;2023-03-17T07:46:12;7.32;;;3.35;;
75220;SDS011;63802;53.232;6.570;2023-03-17T07:48:39;6.97;;;3.33;;
75220;SDS011;63802;53.232;6.570;2023-03-17T07:51:18;6.05;;;3.00;;
75220;SDS011;63802;53.232;6.570;2023-03-17T07:53:53;6.60;;;3.30;;
75220;SDS011;63802;53.232;6.570;2023-03-17T07:56:27;5.18;;;2.88;;
75220;SDS011;63802;53.232;6.570;2023-03-17T07:58:57;5.90;;;2.67;;
75220;SDS011;63802;53.232;6.570;2023-03-17T08:01:27;7.45;;;3.55;;
75220;SDS011;63802;53.232;6.570;2023-03-17T08:03:59;5.53;;;3.00;;
75220;SDS011;63802;53.232;6.570;2023-03-17T08:06:25;7.28;;;3.22;;
75220;SDS011;63802;53.232;6.570;2023-03-17T08:08:52;6.07;;;3.20;;
75220;SDS011;63802;53.232;6.570;2023-03-17T08:11:25;6.18;;;2.85;;
75220;SDS011;63802;53.232;6.570;2023-03-17T08:14:08;7.60;;;3.17;;
75220;SDS011;63802;53.232;6.570;2023-03-17T08:16:43;6.05;;;3.05;;
75220;SDS011;63802;53.232;6.570;2023-03-17T08:19:20;7.10;;;3.33;;
75220;SDS011;63802;53.232;6.570;2023-03-17T08:21:52;7.55;;;3.28;;
75220;SDS011;63802;53.232;6.570;2023-03-17T08:24:29;6.55;;;3.10;;
75220;SDS011;63802;53.232;6.570;2023-03-17T08:27:08;4.88;;;2.63;;
75220;SDS011;63802;53.232;6.570;2023-03-17T08:29:36;7.82;;;2.92;;
75220;SDS011;63802;53.232;6.570;2023-03-17T08:32:12;8.27;;;3.05;;
75220;SDS011;63802;53.232;6.570;2023-03-17T08:34:52;5.82;;;3.08;;
75220;SDS011;63802;53.232;6.570;2023-03-17T08:37:24;6.40;;;3.22;;
75220;SDS011;63802;53.232;6.570;2023-03-17T08:39:50;7.22;;;2.78;;
75220;SDS011;63802;53.232;6.570;2023-03-17T08:42:19;5.68;;;2.60;;
75220;SDS011;63802;53.232;6.570;2023-03-17T08:44:48;7.40;;;3.17;;
75220;SDS011;63802;53.232;6.570;2023-03-17T08:47:15;6.60;;;3.28;;
75220;SDS011;63802;53.232;6.570;2023-03-17T08:49:43;7.75;;;3.17;;
75220;SDS011;63802;53.232;6.570;2023-03-17T08:52:09;5.43;;;3.15;;
75220;SDS011;63802;53.232;6.570;2023-03-17T08:54:55;5.95;;;3.17;;
75220;SDS011;63802;53.232;6.570;2023-03-17T08:57:27;8.03;;;3.17;;
75220;SDS011;63802;53.232;6.570;2023-03-17T08:59:53;5.95;;;3.10;;
75220;SDS011;63802;53.232;6.570;2023-03-17T09:02:21;6.70;;;3.47;;
75220;SDS011;63802;53.232;6.570;2023-03-17T09:04:47;10.05;;;3.00;;
75220;SDS011;63802;53.232;6.570;2023-03-17T09:07:16;5.53;;;3.00;;
75220;SDS011;63802;53.232;6.570;2023-03-17T09:09:41;5.95;;;2.90;;
75220;SDS011;63802;53.232;6.570;2023-03-17T09:14:46;5.32;;;2.75;;
75220;SDS011;63802;53.232;6.570;2023-03-17T09:17:14;5.72;;;2.92;;
75220;SDS011;63802;53.232;6.570;2023-03-17T09:19:40;7.30;;;3.10;;
75220;SDS011;63802;53.232;6.570;2023-03-17T09:22:13;7.78;;;3.25;;
75220;SDS011;63802;53.232;6.570;2023-03-17T09:24:44;8.52;;;3.78;;
75220;SDS011;63802;53.232;6.570;2023-03-17T09:27:16;7.43;;;3.30;;
75220;SDS011;63802;53.232;6.570;2023-03-17T09:29:42;7.82;;;3.05;;
75220;SDS011;63802;53.232;6.570;2023-03-17T09:32:10;8.70;;;3.15;;
75220;SDS011;63802;53.232;6.570;2023-03-17T09:34:36;7.72;;;3.30;;
75220;SDS011;63802;53.232;6.570;2023-03-17T09:37:04;5.45;;;2.78;;
75220;SDS011;63802;53.232;6.570;2023-03-17T09:39:34;6.40;;;3.40;;
75220;SDS011;63802;53.232;6.570;2023-03-17T09:56:34;5.57;;;3.30;;
75220;SDS011;63802;53.232;6.570;2023-03-17T09:59:09;7.53;;;3.45;;
75220;SDS011;63802;53.232;6.570;2023-03-17T10:01:59;6.43;;;2.90;;
75220;SDS011;63802;53.232;6.570;2023-03-17T10:04:28;7.13;;;3.50;;
75220;SDS011;63802;53.232;6.570;2023-03-17T10:06:56;8.48;;;3.42;;
75220;SDS011;63802;53.232;6.570;2023-03-17T10:10:01;5.43;;;3.10;;
75220;SDS011;63802;53.232;6.570;2023-03-17T10:15:46;7.53;;;3.05;;
75220;SDS011;63802;53.232;6.570;2023-03-17T10:18:22;10.50;;;3.83;;
75220;SDS011;63802;53.232;6.570;2023-03-17T10:21:02;5.10;;;2.75;;
75220;SDS011;63802;53.232;6.570;2023-03-17T10:23:34;8.18;;;3.35;;
75220;SDS011;63802;53.232;6.570;2023-03-17T10:26:33;6.72;;;3.30;;
75220;SDS011;63802;53.232;6.570;2023-03-17T10:29:10;9.40;;;3.45;;
75220;SDS011;63802;53.232;6.570;2023-03-17T10:31:49;10.45;;;3.80;;
75220;SDS011;63802;53.232;6.570;2023-03-17T10:34:17;7.18;;;3.50;;
75220;SDS011;63802;53.232;6.570;2023-03-17T10:42:24;5.32;;;2.83;;
75220;SDS011;63802;53.232;6.570;2023-03-17T10:45:00;10.15;;;4.15;;
75220;SDS011;63802;53.232;6.570;2023-03-17T10:47:50;6.03;;;3.20;;
75220;SDS011;63802;53.232;6.570;2023-03-17T10:50:32;7.22;;;3.45;;
75220;SDS011;63802;53.232;6.570;2023-03-17T10:53:24;7.10;;;3.70;;
75220;SDS011;63802;53.232;6.570;2023-03-17T10:56:08;7.95;;;3.28;;
75220;SDS011;63802;53.232;6.570;2023-03-17T10:59:12;6.45;;;3.30;;
75220;SDS011;63802;53.232;6.570;2023-03-17T11:01:50;6.13;;;3.13;;
75220;SDS011;63802;53.232;6.570;2023-03-17T11:04:32;10.73;;;3.92;;
75220;SDS011;63802;53.232;6.570;2023-03-17T11:07:17;7.53;;;3.65;;
75220;SDS011;63802;53.232;6.570;2023-03-17T11:09:50;7.38;;;3.63;;
75220;SDS011;63802;53.232;6.570;2023-03-17T11:15:01;7.63;;;3.72;;
75220;SDS011;63802;53.232;6.570;2023-03-17T11:17:48;6.35;;;3.30;;
75220;SDS011;63802;53.232;6.570;2023-03-17T11:40:58;7.47;;;3.78;;
75220;SDS011;63802;53.232;6.570;2023-03-17T11:48:51;7.93;;;3.67;;
75220;SDS011;63802;53.232;6.570;2023-03-17T12:00:13;8.05;;;4.30;;
75220;SDS011;63802;53.232;6.570;2023-03-17T12:02:58;6.78;;;3.55;;
75220;SDS011;63802;53.232;6.570;2023-03-17T12:05:26;8.45;;;4.15;;
75220;SDS011;63802;53.232;6.570;2023-03-17T12:11:04;8.55;;;4.15;;
75220;SDS011;63802;53.232;6.570;2023-03-17T12:13:50;7.30;;;3.80;;
75220;SDS011;63802;53.232;6.570;2023-03-17T12:16:35;7.15;;;4.00;;
75220;SDS011;63802;53.232;6.570;2023-03-17T12:27:31;10.40;;;4.88;;
75220;SDS011;63802;53.232;6.570;2023-03-17T12:30:20;10.30;;;4.40;;
75220;SDS011;63802;53.232;6.570;2023-03-17T12:32:57;12.00;;;4.85;;
75220;SDS011;63802;53.232;6.570;2023-03-17T12:35:49;7.68;;;4.40;;
75220;SDS011;63802;53.232;6.570;2023-03-17T12:38:17;9.75;;;4.40;;
75220;SDS011;63802;53.232;6.570;2023-03-17T12:46:42;14.48;;;4.72;;
75220;SDS011;63802;53.232;6.570;2023-03-17T12:55:25;12.60;;;4.85;;
75220;SDS011;63802;53.232;6.570;2023-03-17T12:57:59;10.25;;;4.85;;
75220;SDS011;63802;53.232;6.570;2023-03-17T13:00:49;10.52;;;5.00;;
75220;SDS011;63802;53.232;6.570;2023-03-17T13:03:30;8.57;;;4.88;;
75220;SDS011;63802;53.232;6.570;2023-03-17T13:06:03;7.80;;;4.22;;
75220;SDS011;63802;53.232;6.570;2023-03-17T13:08:42;8.02;;;4.28;;
75220;SDS011;63802;53.232;6.570;2023-03-17T13:11:20;12.48;;;5.03;;
75220;SDS011;63802;53.232;6.570;2023-03-17T13:14:12;9.90;;;4.85;;
75220;SDS011;63802;53.232;6.570;2023-03-17T13:16:45;8.10;;;4.57;;
75220;SDS011;63802;53.232;6.570;2023-03-17T13:19:18;9.75;;;5.13;;
75220;SDS011;63802;53.232;6.570;2023-03-17T13:24:46;12.95;;;5.10;;
75220;SDS011;63802;53.232;6.570;2023-03-17T13:30:39;11.50;;;5.43;;
75220;SDS011;63802;53.232;6.570;2023-03-17T13:44:21;10.93;;;5.07;;
75220;SDS011;63802;53.232;6.570;2023-03-17T13:46:54;11.18;;;5.15;;
75220;SDS011;63802;53.232;6.570;2023-03-17T13:49:26;12.60;;;5.30;;
75220;SDS011;63802;53.232;6.570;2023-03-17T13:52:01;10.05;;;4.95;;
75220;SDS011;63802;53.232;6.570;2023-03-17T13:54:39;10.57;;;5.40;;
75220;SDS011;63802;53.232;6.570;2023-03-17T13:57:21;10.07;;;5.15;;
75220;SDS011;63802;53.232;6.570;2023-03-17T14:00:11;9.70;;;5.47;;
75220;SDS011;63802;53.232;6.570;2023-03-17T14:02:40;11.23;;;5.03;;
75220;SDS011;63802;53.232;6.570;2023-03-17T14:05:32;12.90;;;5.55;;
75220;SDS011;63802;53.232;6.570;2023-03-17T14:08:12;8.95;;;4.68;;
75220;SDS011;63802;53.232;6.570;2023-03-17T14:10:40;10.82;;;4.78;;
75220;SDS011;63802;53.232;6.570;2023-03-17T14:13:19;10.65;;;5.28;;
75220;SDS011;63802;53.232;6.570;2023-03-17T14:15:57;10.10;;;5.18;;
75220;SDS011;63802;53.232;6.570;2023-03-17T14:21:02;9.50;;;5.18;;
75220;SDS011;63802;53.232;6.570;2023-03-17T14:23:30;9.47;;;5.20;;
75220;SDS011;63802;53.232;6.570;2023-03-17T14:26:02;13.07;;;5.68;;
75220;SDS011;63802;53.232;6.570;2023-03-17T14:30:58;11.68;;;5.10;;
75220;SDS011;63802;53.232;6.570;2023-03-17T14:33:30;9.20;;;5.00;;
75220;SDS011;63802;53.232;6.570;2023-03-17T14:36:01;8.73;;;4.80;;
75220;SDS011;63802;53.232;6.570;2023-03-17T14:38:31;10.15;;;4.88;;
75220;SDS011;63802;53.232;6.570;2023-03-17T14:41:17;10.23;;;4.88;;
75220;SDS011;63802;53.232;6.570;2023-03-17T14:43:48;10.90;;;4.90;;
75220;SDS011;63802;53.232;6.570;2023-03-17T14:46:22;12.35;;;5.40;;
75220;SDS011;63802;53.232;6.570;2023-03-17T14:48:59;12.32;;;5.85;;
75220;SDS011;63802;53.232;6.570;2023-03-17T14:54:01;8.85;;;4.88;;
75220;SDS011;63802;53.232;6.570;2023-03-17T14:56:48;9.68;;;5.47;;
75220;SDS011;63802;53.232;6.570;2023-03-17T14:59:35;11.95;;;5.43;;
75220;SDS011;63802;53.232;6.570;2023-03-17T15:02:13;12.88;;;5.55;;
75220;SDS011;63802;53.232;6.570;2023-03-17T15:04:49;11.02;;;5.15;;
75220;SDS011;63802;53.232;6.570;2023-03-17T15:07:28;12.50;;;6.25;;
75220;SDS011;63802;53.232;6.570;2023-03-17T15:09:58;10.43;;;5.10;;
75220;SDS011;63802;53.232;6.570;2023-03-17T15:12:27;9.38;;;4.97;;
75220;SDS011;63802;53.232;6.570;2023-03-17T15:14:59;11.30;;;5.38;;
75220;SDS011;63802;53.232;6.570;2023-03-17T15:17:30;10.75;;;5.60;;
75220;SDS011;63802;53.232;6.570;2023-03-17T15:20:02;11.85;;;5.40;;
75220;SDS011;63802;53.232;6.570;2023-03-17T15:22:40;10.65;;;4.85;;
75220;SDS011;63802;53.232;6.570;2023-03-17T15:27:50;10.63;;;5.25;;
75220;SDS011;63802;53.232;6.570;2023-03-17T15:30:23;10.63;;;5.00;;
75220;SDS011;63802;53.232;6.570;2023-03-17T15:32:59;9.68;;;4.68;;
75220;SDS011;63802;53.232;6.570;2023-03-17T15:35:27;9.05;;;4.63;;
75220;SDS011;63802;53.232;6.570;2023-03-17T15:37:56;11.27;;;5.15;;
75220;SDS011;63802;53.232;6.570;2023-03-17T15:40:28;11.48;;;5.22;;
75220;SDS011;63802;53.232;6.570;2023-03-17T15:42:53;14.27;;;5.93;;
75220;SDS011;63802;53.232;6.570;2023-03-17T15:45:19;11.48;;;5.57;;
75220;SDS011;63802;53.232;6.570;2023-03-17T15:47:48;11.38;;;5.63;;
75220;SDS011;63802;53.232;6.570;2023-03-17T15:52:54;11.65;;;4.93;;
75220;SDS011;63802;53.232;6.570;2023-03-17T15:55:25;10.35;;;5.18;;
75220;SDS011;63802;53.232;6.570;2023-03-17T16:00:25;9.40;;;4.85;;
75220;SDS011;63802;53.232;6.570;2023-03-17T16:03:03;8.82;;;5.15;;
75220;SDS011;63802;53.232;6.570;2023-03-17T16:06:01;10.30;;;5.20;;
75220;SDS011;63802;53.232;6.570;2023-03-17T16:08:33;10.68;;;6.25;;
75220;SDS011;63802;53.232;6.570;2023-03-17T16:10:59;11.27;;;5.63;;
75220;SDS011;63802;53.232;6.570;2023-03-17T16:13:27;9.90;;;5.28;;
75220;SDS011;63802;53.232;6.570;2023-03-17T16:15:57;11.55;;;5.60;;
75220;SDS011;63802;53.232;6.570;2023-03-17T16:18:33;9.88;;;5.43;;
75220;SDS011;63802;53.232;6.570;2023-03-17T16:21:02;10.38;;;5.32;;
75220;SDS011;63802;53.232;6.570;2023-03-17T16:23:32;12.32;;;5.18;;
75220;SDS011;63802;53.232;6.570;2023-03-17T16:26:00;10.82;;;5.63;;
75220;SDS011;63802;53.232;6.570;2023-03-17T16:28:34;12.82;;;5.45;;
75220;SDS011;63802;53.232;6.570;2023-03-17T16:31:07;11.10;;;5.55;;
75220;SDS011;63802;53.232;6.570;2023-03-17T16:33:42;14.80;;;5.95;;
75220;SDS011;63802;53.232;6.570;2023-03-17T16:36:15;12.85;;;5.03;;
75220;SDS011;63802;53.232;6.570;2023-03-17T16:38:46;9.95;;;4.80;;
75220;SDS011;63802;53.232;6.570;2023-03-17T16:41:25;10.48;;;5.53;;
75220;SDS011;63802;53.232;6.570;2023-03-17T16:44:00;11.50;;;5.07;;
75220;SDS011;63802;53.232;6.570;2023-03-17T16:46:32;9.38;;;5.07;;
75220;SDS011;63802;53.232;6.570;2023-03-17T16:48:58;13.50;;;5.45;;
75220;SDS011;63802;53.232;6.570;2023-03-17T16:51:24;12.55;;;5.18;;
75220;SDS011;63802;53.232;6.570;2023-03-17T16:53:49;14.05;;;5.05;;
75220;SDS011;63802;53.232;6.570;2023-03-17T16:56:16;11.35;;;5.00;;
75220;SDS011;63802;53.232;6.570;2023-03-17T16:58:46;9.55;;;4.70;;
75220;SDS011;63802;53.232;6.570;2023-03-17T17:04:19;10.57;;;5.13;;
75220;SDS011;63802;53.232;6.570;2023-03-17T17:06:44;11.82;;;4.47;;
75220;SDS011;63802;53.232;6.570;2023-03-17T17:09:16;10.77;;;4.25;;
75220;SDS011;63802;53.232;6.570;2023-03-17T17:11:59;9.05;;;4.25;;
75220;SDS011;63802;53.232;6.570;2023-03-17T17:14:27;9.60;;;4.22;;
75220;SDS011;63802;53.232;6.570;2023-03-17T17:16:59;11.73;;;4.80;;
75220;SDS011;63802;53.232;6.570;2023-03-17T17:22:04;10.68;;;4.53;;
75220;SDS011;63802;53.232;6.570;2023-03-17T17:24:45;11.23;;;5.03;;
75220;SDS011;63802;53.232;6.570;2023-03-17T17:27:11;8.98;;;4.57;;
75220;SDS011;63802;53.232;6.570;2023-03-17T17:30:23;12.55;;;5.65;;
75220;SDS011;63802;53.232;6.570;2023-03-17T17:33:54;10.77;;;4.85;;
75220;SDS011;63802;53.232;6.570;2023-03-17T17:36:37;9.52;;;5.13;;
75220;SDS011;63802;53.232;6.570;2023-03-17T17:39:32;10.73;;;5.70;;
75220;SDS011;63802;53.232;6.570;2023-03-17T17:42:01;10.05;;;4.88;;